Strona główna
Zdjęcia satelitarne 10-dni prognozyKlimatMeteorologia morska Cyklony Błyskawica LotniskoFAQ Gazetka O
Pogoda : Europa Afryka Ameryka Północna Ameryka Południowa Azja Australia-Oceania Inny
Języki Kontakt

Doncaster Sheffield, Anglia

Port lotniczy Doncaster/Sheffield

Szerokość geograficzna: 53-29N, Długość geograficzna: 001-00W, wysokość: 17 m


METAR: EGCN 270850Z 30010KT 8000 BKN032 13/05 Q1025
TAF: EGCN 270803Z 2709/2718 27008KT 9999 SCT030 BECMG 2712/2715 21010KT TEMPO 2716/2718 7000 RA

czas: 10:29 (09:29 UTC)

Aktualna obserwacja pogody

Raport powstał 39 minut temu, godzina 08:50 UTC
Wiatr 10 kt od zachodnio-północny zachód
Temperatura 13°C
Wilgotność 58%
Ciśnienie 1025 hPa
Widzialność: 8000 m
Przerywane chmury na wysokości 3200 ft

Jednostka miary

Prognoza

Raport powstał 1 godzina i 26 minut temu, godzina 08:03 UTC
Prognoza ważna od 27 godzina 09 UTC do 27 godzina 18 UTC
Wiatr 8 kt od zachód
Widzialność 10 km lub więcej
Rozproszone chmury na wysokości 3000 ft
Stopniowe zmiany
od 27 godzina 12 UTC do 27 godzina 15 UTC
Wiatr 10 kt od południowo-południowy zachód
Przejściowo
od 27 godzina 16 UTC do 27 godzina 18 UTC
Widzialność: 7000 m
deszcz
Informacje na tej stronie internetowej podlegają klauzuli o wyłączeniu odpowiedzialności
Pogoda : Europa Afryka Ameryka Północna Ameryka Południowa Azja Australia-Oceania Inny
Zdjęcia satelitarne 10-dni prognozyKlimatMeteorologia morska Cyklony Błyskawica LotniskoFAQ Języki Kontakt Gazetka O